sensor_id;sensor_type;location;lat;lon;timestamp;P1;P2;P0
42002;PMS7003;27693;50.506;30.832;2023-03-11T00:00:12;17.45;15.27;12.09
42002;PMS7003;27693;50.506;30.832;2023-03-11T00:01:17;18.30;15.20;12.20
42002;PMS7003;27693;50.506;30.832;2023-03-11T00:02:19;16.30;14.30;10.80
42002;PMS7003;27693;50.506;30.832;2023-03-11T00:03:22;18.82;16.55;13.82
42002;PMS7003;27693;50.506;30.832;2023-03-11T00:04:25;20.27;16.09;11.64
42002;PMS7003;27693;50.506;30.832;2023-03-11T00:05:29;19.80;14.90;11.30
42002;PMS7003;27693;50.506;30.832;2023-03-11T00:06:34;18.90;15.80;12.50
42002;PMS7003;27693;50.506;30.832;2023-03-11T00:07:36;15.50;13.60;10.20
42002;PMS7003;27693;50.506;30.832;2023-03-11T00:08:40;16.50;14.70;11.50
42002;PMS7003;27693;50.506;30.832;2023-03-11T00:09:44;17.10;16.00;11.90
42002;PMS7003;27693;50.506;30.832;2023-03-11T00:10:53;17.70;15.50;11.50
42002;PMS7003;27693;50.506;30.832;2023-03-11T00:11:54;18.40;14.50;10.50
42002;PMS7003;27693;50.506;30.832;2023-03-11T00:12:57;16.10;12.70;8.80
42002;PMS7003;27693;50.506;30.832;2023-03-11T00:14:01;18.00;17.50;12.50
42002;PMS7003;27693;50.506;30.832;2023-03-11T00:15:03;22.30;15.70;12.30
42002;PMS7003;27693;50.506;30.832;2023-03-11T00:16:06;20.90;15.60;11.60
42002;PMS7003;27693;50.506;30.832;2023-03-11T00:17:09;15.00;14.40;10.30
42002;PMS7003;27693;50.506;30.832;2023-03-11T00:18:11;18.40;14.20;11.70
42002;PMS7003;27693;50.506;30.832;2023-03-11T00:19:13;16.90;13.70;11.10
42002;PMS7003;27693;50.506;30.832;2023-03-11T00:20:19;17.80;14.80;11.80
42002;PMS7003;27693;50.506;30.832;2023-03-11T00:21:22;16.20;14.80;12.30
42002;PMS7003;27693;50.506;30.832;2023-03-11T00:22:25;19.10;14.80;10.80
42002;PMS7003;27693;50.506;30.832;2023-03-11T00:23:27;18.30;15.70;11.80
42002;PMS7003;27693;50.506;30.832;2023-03-11T00:24:30;18.36;16.09;12.18
42002;PMS7003;27693;50.506;30.832;2023-03-11T00:25:33;16.40;15.30;11.50
42002;PMS7003;27693;50.506;30.832;2023-03-11T00:26:38;15.10;14.10;10.10
42002;PMS7003;27693;50.506;30.832;2023-03-11T00:27:41;17.20;14.30;12.00
42002;PMS7003;27693;50.506;30.832;2023-03-11T00:28:45;15.90;12.90;9.50
42002;PMS7003;27693;50.506;30.832;2023-03-11T00:29:49;17.00;16.00;11.70
42002;PMS7003;27693;50.506;30.832;2023-03-11T00:30:52;20.09;16.36;13.82
42002;PMS7003;27693;50.506;30.832;2023-03-11T00:31:55;17.80;15.70;11.40
42002;PMS7003;27693;50.506;30.832;2023-03-11T00:32:58;18.64;16.45;12.36
42002;PMS7003;27693;50.506;30.832;2023-03-11T00:34:02;21.00;15.90;12.00
42002;PMS7003;27693;50.506;30.832;2023-03-11T00:35:07;16.00;14.80;12.50
42002;PMS7003;27693;50.506;30.832;2023-03-11T00:36:19;19.30;14.90;11.10
42002;PMS7003;27693;50.506;30.832;2023-03-11T00:37:28;20.20;15.10;11.60
42002;PMS7003;27693;50.506;30.832;2023-03-11T00:38:32;18.10;14.90;12.20
42002;PMS7003;27693;50.506;30.832;2023-03-11T00:39:34;19.60;15.90;12.40
42002;PMS7003;27693;50.506;30.832;2023-03-11T00:40:37;16.00;14.18;10.91
42002;PMS7003;27693;50.506;30.832;2023-03-11T00:41:41;18.50;16.40;11.50
42002;PMS7003;27693;50.506;30.832;2023-03-11T00:42:43;20.60;17.10;12.40
42002;PMS7003;27693;50.506;30.832;2023-03-11T00:43:46;19.73;16.82;11.73
42002;PMS7003;27693;50.506;30.832;2023-03-11T00:44:48;17.60;14.10;12.30
42002;PMS7003;27693;50.506;30.832;2023-03-11T00:45:51;20.50;16.90;12.80
42002;PMS7003;27693;50.506;30.832;2023-03-11T00:46:54;19.10;16.50;12.60
42002;PMS7003;27693;50.506;30.832;2023-03-11T00:47:57;19.73;15.64;12.18
42002;PMS7003;27693;50.506;30.832;2023-03-11T00:49:00;20.70;16.70;13.20
42002;PMS7003;27693;50.506;30.832;2023-03-11T00:50:03;22.70;15.80;11.40
42002;PMS7003;27693;50.506;30.832;2023-03-11T00:51:08;17.20;16.30;13.00
42002;PMS7003;27693;50.506;30.832;2023-03-11T00:52:17;13.90;11.90;9.90
42002;PMS7003;27693;50.506;30.832;2023-03-11T00:53:20;19.00;14.20;11.50
42002;PMS7003;27693;50.506;30.832;2023-03-11T00:54:23;19.70;16.30;11.80
42002;PMS7003;27693;50.506;30.832;2023-03-11T00:55:27;15.00;12.20;10.50
42002;PMS7003;27693;50.506;30.832;2023-03-11T00:56:32;20.30;15.80;11.80
42002;PMS7003;27693;50.506;30.832;2023-03-11T00:57:35;19.00;16.70;13.30
42002;PMS7003;27693;50.506;30.832;2023-03-11T00:58:37;17.80;14.80;11.00
42002;PMS7003;27693;50.506;30.832;2023-03-11T00:59:40;17.45;15.00;12.09
42002;PMS7003;27693;50.506;30.832;2023-03-11T01:00:43;17.00;14.40;12.00
42002;PMS7003;27693;50.506;30.832;2023-03-11T01:01:46;16.82;13.82;10.82
42002;PMS7003;27693;50.506;30.832;2023-03-11T01:02:49;20.36;14.27;11.64
42002;PMS7003;27693;50.506;30.832;2023-03-11T01:03:52;19.00;16.10;13.50
42002;PMS7003;27693;50.506;30.832;2023-03-11T01:04:55;19.10;14.70;11.00
42002;PMS7003;27693;50.506;30.832;2023-03-11T01:05:58;18.30;16.10;11.70
42002;PMS7003;27693;50.506;30.832;2023-03-11T01:07:00;18.60;16.20;11.90
42002;PMS7003;27693;50.506;30.832;2023-03-11T01:08:03;18.80;16.30;12.10
42002;PMS7003;27693;50.506;30.832;2023-03-11T01:09:06;17.60;15.00;11.60
42002;PMS7003;27693;50.506;30.832;2023-03-11T01:10:09;18.82;15.55;12.45
42002;PMS7003;27693;50.506;30.832;2023-03-11T01:11:12;15.90;13.60;12.10
42002;PMS7003;27693;50.506;30.832;2023-03-11T01:12:15;20.30;15.10;10.30
42002;PMS7003;27693;50.506;30.832;2023-03-11T01:13:17;19.90;15.40;11.80
42002;PMS7003;27693;50.506;30.832;2023-03-11T01:14:21;15.90;14.20;11.90
42002;PMS7003;27693;50.506;30.832;2023-03-11T01:15:29;18.40;14.80;10.90
42002;PMS7003;27693;50.506;30.832;2023-03-11T01:16:34;19.60;16.10;13.20
42002;PMS7003;27693;50.506;30.832;2023-03-11T01:17:37;15.00;13.60;10.80
42002;PMS7003;27693;50.506;30.832;2023-03-11T01:18:39;20.40;15.20;12.20
42002;PMS7003;27693;50.506;30.832;2023-03-11T01:19:41;16.70;14.60;11.00
42002;PMS7003;27693;50.506;30.832;2023-03-11T01:20:46;19.50;14.30;11.10
42002;PMS7003;27693;50.506;30.832;2023-03-11T01:21:49;19.30;14.70;10.90
42002;PMS7003;27693;50.506;30.832;2023-03-11T01:22:51;18.50;17.70;12.50
42002;PMS7003;27693;50.506;30.832;2023-03-11T01:23:54;19.60;16.70;12.30
42002;PMS7003;27693;50.506;30.832;2023-03-11T01:24:57;18.40;16.60;12.20
42002;PMS7003;27693;50.506;30.832;2023-03-11T01:25:59;15.00;15.00;12.20
42002;PMS7003;27693;50.506;30.832;2023-03-11T01:27:02;18.60;17.00;12.30
42002;PMS7003;27693;50.506;30.832;2023-03-11T01:28:04;20.50;17.80;12.90
42002;PMS7003;27693;50.506;30.832;2023-03-11T01:29:09;18.10;16.20;11.50
42002;PMS7003;27693;50.506;30.832;2023-03-11T01:30:12;18.00;15.70;12.20
42002;PMS7003;27693;50.506;30.832;2023-03-11T01:31:17;18.70;15.30;11.60
42002;PMS7003;27693;50.506;30.832;2023-03-11T01:32:19;6.90;3.20;0.90
42002;PMS7003;27693;50.506;30.832;2023-03-11T01:33:22;18.70;15.40;12.60
42002;PMS7003;27693;50.506;30.832;2023-03-11T01:34:24;17.50;13.70;10.40
42002;PMS7003;27693;50.506;30.832;2023-03-11T01:35:27;14.70;11.10;7.00
42002;PMS7003;27693;50.506;30.832;2023-03-11T01:36:31;22.80;17.90;12.30
42002;PMS7003;27693;50.506;30.832;2023-03-11T01:37:33;20.70;16.20;12.80
42002;PMS7003;27693;50.506;30.832;2023-03-11T01:38:36;19.70;16.00;11.80
42002;PMS7003;27693;50.506;30.832;2023-03-11T01:39:38;26.10;19.30;14.40
42002;PMS7003;27693;50.506;30.832;2023-03-11T01:40:46;20.40;14.90;10.80
42002;PMS7003;27693;50.506;30.832;2023-03-11T01:41:48;21.50;17.60;12.70
42002;PMS7003;27693;50.506;30.832;2023-03-11T01:42:50;16.80;14.30;10.30
42002;PMS7003;27693;50.506;30.832;2023-03-11T01:43:53;22.36;19.45;14.18
42002;PMS7003;27693;50.506;30.832;2023-03-11T01:44:58;22.50;18.50;13.00
42002;PMS7003;27693;50.506;30.832;2023-03-11T01:47:31;21.00;18.00;13.40
42002;PMS7003;27693;50.506;30.832;2023-03-11T01:48:35;21.70;18.00;13.60
42002;PMS7003;27693;50.506;30.832;2023-03-11T01:49:39;20.50;18.50;12.70
42002;PMS7003;27693;50.506;30.832;2023-03-11T01:50:44;21.70;18.50;13.40
42002;PMS7003;27693;50.506;30.832;2023-03-11T01:52:03;18.80;17.90;13.50
42002;PMS7003;27693;50.506;30.832;2023-03-11T01:53:04;15.80;15.60;10.60
42002;PMS7003;27693;50.506;30.832;2023-03-11T01:54:08;23.70;17.80;13.40
42002;PMS7003;27693;50.506;30.832;2023-03-11T01:55:16;20.70;17.30;12.60
42002;PMS7003;27693;50.506;30.832;2023-03-11T01:56:21;24.40;17.10;13.20
42002;PMS7003;27693;50.506;30.832;2023-03-11T01:57:25;18.50;16.80;12.80
42002;PMS7003;27693;50.506;30.832;2023-03-11T01:58:30;21.60;19.30;13.50
42002;PMS7003;27693;50.506;30.832;2023-03-11T01:59:42;18.80;16.30;11.90
42002;PMS7003;27693;50.506;30.832;2023-03-11T02:00:47;24.30;17.40;12.40
42002;PMS7003;27693;50.506;30.832;2023-03-11T02:02:08;21.60;17.10;12.70
42002;PMS7003;27693;50.506;30.832;2023-03-11T02:03:17;20.80;18.70;12.80
42002;PMS7003;27693;50.506;30.832;2023-03-11T02:04:24;20.70;18.80;13.30
42002;PMS7003;27693;50.506;30.832;2023-03-11T02:05:28;12.30;10.50;6.90
42002;PMS7003;27693;50.506;30.832;2023-03-11T02:06:30;19.40;18.80;13.80
42002;PMS7003;27693;50.506;30.832;2023-03-11T02:07:34;14.70;13.20;9.90
42002;PMS7003;27693;50.506;30.832;2023-03-11T02:08:40;17.90;14.20;9.10
42002;PMS7003;27693;50.506;30.832;2023-03-11T02:09:44;17.60;15.90;11.90
42002;PMS7003;27693;50.506;30.832;2023-03-11T02:10:47;20.00;16.00;12.80
42002;PMS7003;27693;50.506;30.832;2023-03-11T02:11:53;19.00;16.90;13.80
42002;PMS7003;27693;50.506;30.832;2023-03-11T02:12:58;22.00;17.50;13.70
42002;PMS7003;27693;50.506;30.832;2023-03-11T02:14:02;20.90;18.00;12.70
42002;PMS7003;27693;50.506;30.832;2023-03-11T02:15:08;20.10;17.50;12.50
42002;PMS7003;27693;50.506;30.832;2023-03-11T02:16:12;25.50;20.50;14.80
42002;PMS7003;27693;50.506;30.832;2023-03-11T02:17:15;23.50;18.00;12.50
42002;PMS7003;27693;50.506;30.832;2023-03-11T02:18:18;21.70;18.90;13.50
42002;PMS7003;27693;50.506;30.832;2023-03-11T02:21:58;22.60;18.40;13.40
42002;PMS7003;27693;50.506;30.832;2023-03-11T02:23:01;22.00;18.60;13.90
42002;PMS7003;27693;50.506;30.832;2023-03-11T02:26:34;20.40;17.70;12.30
42002;PMS7003;27693;50.506;30.832;2023-03-11T02:27:53;18.70;15.00;11.70
42002;PMS7003;27693;50.506;30.832;2023-03-11T02:28:59;22.90;17.30;13.30
42002;PMS7003;27693;50.506;30.832;2023-03-11T02:30:06;19.70;15.50;12.20
42002;PMS7003;27693;50.506;30.832;2023-03-11T02:31:11;22.30;17.50;14.20
42002;PMS7003;27693;50.506;30.832;2023-03-11T02:32:15;26.10;19.50;14.00
42002;PMS7003;27693;50.506;30.832;2023-03-11T02:33:19;14.30;12.50;11.30
42002;PMS7003;27693;50.506;30.832;2023-03-11T02:34:27;21.90;17.80;13.10
42002;PMS7003;27693;50.506;30.832;2023-03-11T02:35:29;23.50;17.80;13.20
42002;PMS7003;27693;50.506;30.832;2023-03-11T02:36:34;21.50;18.50;13.20
42002;PMS7003;27693;50.506;30.832;2023-03-11T02:37:43;22.90;19.90;15.40
42002;PMS7003;27693;50.506;30.832;2023-03-11T02:38:47;22.60;19.60;14.50
42002;PMS7003;27693;50.506;30.832;2023-03-11T02:39:50;22.30;18.20;13.40
42002;PMS7003;27693;50.506;30.832;2023-03-11T02:42:01;23.80;19.80;15.40
42002;PMS7003;27693;50.506;30.832;2023-03-11T02:43:17;24.50;19.10;14.00
42002;PMS7003;27693;50.506;30.832;2023-03-11T02:44:22;26.80;21.90;15.90
42002;PMS7003;27693;50.506;30.832;2023-03-11T02:45:26;22.00;20.30;14.30
42002;PMS7003;27693;50.506;30.832;2023-03-11T02:46:31;27.10;19.00;14.70
42002;PMS7003;27693;50.506;30.832;2023-03-11T02:47:34;18.10;18.10;13.70
42002;PMS7003;27693;50.506;30.832;2023-03-11T02:48:40;21.80;18.50;14.40
42002;PMS7003;27693;50.506;30.832;2023-03-11T02:49:44;27.60;21.40;14.70
42002;PMS7003;27693;50.506;30.832;2023-03-11T02:50:46;19.10;14.70;11.50
42002;PMS7003;27693;50.506;30.832;2023-03-11T02:51:49;21.18;17.64;13.55
42002;PMS7003;27693;50.506;30.832;2023-03-11T02:52:53;20.40;18.40;14.00
42002;PMS7003;27693;50.506;30.832;2023-03-11T02:53:58;24.20;19.00;14.60
42002;PMS7003;27693;50.506;30.832;2023-03-11T02:55:03;22.40;20.80;14.10
42002;PMS7003;27693;50.506;30.832;2023-03-11T02:56:08;21.30;17.90;14.20
42002;PMS7003;27693;50.506;30.832;2023-03-11T02:57:11;25.00;19.90;14.70
42002;PMS7003;27693;50.506;30.832;2023-03-11T02:58:13;22.10;19.60;13.40
42002;PMS7003;27693;50.506;30.832;2023-03-11T02:59:15;22.20;18.60;15.30
42002;PMS7003;27693;50.506;30.832;2023-03-11T03:00:19;19.55;18.64;13.82
42002;PMS7003;27693;50.506;30.832;2023-03-11T03:01:23;23.60;19.00;14.30
42002;PMS7003;27693;50.506;30.832;2023-03-11T03:02:26;24.20;20.50;14.40
42002;PMS7003;27693;50.506;30.832;2023-03-11T03:03:28;24.00;21.10;15.10
42002;PMS7003;27693;50.506;30.832;2023-03-11T03:04:31;25.30;19.30;14.00
42002;PMS7003;27693;50.506;30.832;2023-03-11T03:05:34;25.40;17.20;12.70
42002;PMS7003;27693;50.506;30.832;2023-03-11T03:06:38;22.80;20.00;14.80
42002;PMS7003;27693;50.506;30.832;2023-03-11T03:07:40;26.90;21.60;15.70
42002;PMS7003;27693;50.506;30.832;2023-03-11T03:08:43;25.20;20.70;13.90
42002;PMS7003;27693;50.506;30.832;2023-03-11T03:09:45;24.40;19.40;12.90
42002;PMS7003;27693;50.506;30.832;2023-03-11T03:10:47;23.20;21.00;14.10
42002;PMS7003;27693;50.506;30.832;2023-03-11T03:11:50;21.50;18.70;14.00
42002;PMS7003;27693;50.506;30.832;2023-03-11T03:12:52;23.40;18.70;12.30
42002;PMS7003;27693;50.506;30.832;2023-03-11T03:13:55;25.27;21.55;15.55
42002;PMS7003;27693;50.506;30.832;2023-03-11T03:14:58;24.60;19.70;14.80
42002;PMS7003;27693;50.506;30.832;2023-03-11T03:16:01;19.73;17.82;13.27
42002;PMS7003;27693;50.506;30.832;2023-03-11T03:17:04;22.00;19.70;13.70
42002;PMS7003;27693;50.506;30.832;2023-03-11T03:18:07;28.82;20.55;14.45
42002;PMS7003;27693;50.506;30.832;2023-03-11T03:19:09;23.20;20.70;14.60
42002;PMS7003;27693;50.506;30.832;2023-03-11T03:20:13;21.20;18.60;13.70
42002;PMS7003;27693;50.506;30.832;2023-03-11T03:21:17;27.20;22.30;16.40
42002;PMS7003;27693;50.506;30.832;2023-03-11T03:22:20;21.73;20.00;14.00
42002;PMS7003;27693;50.506;30.832;2023-03-11T03:23:25;25.00;22.80;14.60
42002;PMS7003;27693;50.506;30.832;2023-03-11T03:24:27;24.80;20.40;15.00
42002;PMS7003;27693;50.506;30.832;2023-03-11T03:25:31;25.00;24.30;16.80
42002;PMS7003;27693;50.506;30.832;2023-03-11T03:26:35;25.50;21.40;15.90
42002;PMS7003;27693;50.506;30.832;2023-03-11T03:27:39;22.40;20.90;14.90
42002;PMS7003;27693;50.506;30.832;2023-03-11T03:28:42;25.90;20.50;14.10
42002;PMS7003;27693;50.506;30.832;2023-03-11T03:29:45;25.00;20.00;14.60
42002;PMS7003;27693;50.506;30.832;2023-03-11T03:30:48;22.20;20.50;15.70
42002;PMS7003;27693;50.506;30.832;2023-03-11T03:31:50;27.10;22.20;15.30
42002;PMS7003;27693;50.506;30.832;2023-03-11T03:32:54;25.64;20.00;14.45
42002;PMS7003;27693;50.506;30.832;2023-03-11T03:33:57;26.60;22.60;14.80
42002;PMS7003;27693;50.506;30.832;2023-03-11T03:35:00;22.36;19.45;15.09
42002;PMS7003;27693;50.506;30.832;2023-03-11T03:36:09;24.40;21.50;15.80
42002;PMS7003;27693;50.506;30.832;2023-03-11T03:37:16;25.70;21.00;14.50
42002;PMS7003;27693;50.506;30.832;2023-03-11T03:38:19;25.10;19.40;14.20
42002;PMS7003;27693;50.506;30.832;2023-03-11T03:39:22;23.27;20.27;15.55
42002;PMS7003;27693;50.506;30.832;2023-03-11T03:40:25;23.45;20.45;14.36
42002;PMS7003;27693;50.506;30.832;2023-03-11T03:41:28;24.80;19.40;15.00
42002;PMS7003;27693;50.506;30.832;2023-03-11T03:42:30;13.40;8.80;4.80
42002;PMS7003;27693;50.506;30.832;2023-03-11T03:43:33;29.60;23.50;16.80
42002;PMS7003;27693;50.506;30.832;2023-03-11T03:44:36;22.60;18.60;13.90
42002;PMS7003;27693;50.506;30.832;2023-03-11T03:45:39;26.27;23.18;16.00
42002;PMS7003;27693;50.506;30.832;2023-03-11T03:46:42;21.82;19.00;13.36
42002;PMS7003;27693;50.506;30.832;2023-03-11T03:47:44;22.40;18.90;12.40
42002;PMS7003;27693;50.506;30.832;2023-03-11T03:48:47;20.80;17.00;12.40
42002;PMS7003;27693;50.506;30.832;2023-03-11T03:49:49;27.80;23.80;16.20
42002;PMS7003;27693;50.506;30.832;2023-03-11T03:50:52;24.10;19.90;15.10
42002;PMS7003;27693;50.506;30.832;2023-03-11T03:51:54;26.80;23.40;17.70
42002;PMS7003;27693;50.506;30.832;2023-03-11T03:52:59;23.10;19.00;15.80
42002;PMS7003;27693;50.506;30.832;2023-03-11T03:54:02;24.80;21.70;16.40
42002;PMS7003;27693;50.506;30.832;2023-03-11T03:55:05;26.55;22.27;16.82
42002;PMS7003;27693;50.506;30.832;2023-03-11T03:56:10;33.00;25.70;16.70
42002;PMS7003;27693;50.506;30.832;2023-03-11T03:57:15;23.30;20.10;14.50
42002;PMS7003;27693;50.506;30.832;2023-03-11T03:58:20;28.00;22.20;16.70
42002;PMS7003;27693;50.506;30.832;2023-03-11T03:59:22;31.00;25.09;16.27
42002;PMS7003;27693;50.506;30.832;2023-03-11T04:00:27;28.30;25.50;17.20
42002;PMS7003;27693;50.506;30.832;2023-03-11T04:01:31;30.10;26.20;16.80
42002;PMS7003;27693;50.506;30.832;2023-03-11T04:02:34;26.30;22.00;15.00
42002;PMS7003;27693;50.506;30.832;2023-03-11T04:03:38;25.90;20.80;14.10
42002;PMS7003;27693;50.506;30.832;2023-03-11T04:04:43;18.10;15.80;9.40
42002;PMS7003;27693;50.506;30.832;2023-03-11T04:05:45;30.80;24.20;16.30
42002;PMS7003;27693;50.506;30.832;2023-03-11T04:06:50;23.40;17.30;11.00
42002;PMS7003;27693;50.506;30.832;2023-03-11T04:07:53;30.00;23.10;16.40
42002;PMS7003;27693;50.506;30.832;2023-03-11T04:08:56;26.60;23.40;15.90
42002;PMS7003;27693;50.506;30.832;2023-03-11T04:10:00;29.50;23.90;15.50
42002;PMS7003;27693;50.506;30.832;2023-03-11T04:11:05;23.80;19.00;12.90
42002;PMS7003;27693;50.506;30.832;2023-03-11T04:12:14;28.27;24.27;17.27
42002;PMS7003;27693;50.506;30.832;2023-03-11T04:13:21;29.40;25.90;18.60
42002;PMS7003;27693;50.506;30.832;2023-03-11T04:14:24;29.91;23.82;18.00
42002;PMS7003;27693;50.506;30.832;2023-03-11T04:15:28;21.60;18.30;11.40
42002;PMS7003;27693;50.506;30.832;2023-03-11T04:16:30;32.40;24.20;17.80
42002;PMS7003;27693;50.506;30.832;2023-03-11T04:17:36;26.30;22.30;16.40
42002;PMS7003;27693;50.506;30.832;2023-03-11T04:18:39;24.70;23.30;16.20
42002;PMS7003;27693;50.506;30.832;2023-03-11T04:19:42;31.30;23.20;15.50
42002;PMS7003;27693;50.506;30.832;2023-03-11T04:20:46;26.70;23.30;16.60
42002;PMS7003;27693;50.506;30.832;2023-03-11T04:21:48;25.30;22.90;13.80
42002;PMS7003;27693;50.506;30.832;2023-03-11T04:22:52;26.90;23.00;16.10
42002;PMS7003;27693;50.506;30.832;2023-03-11T04:23:57;31.70;24.40;16.30
42002;PMS7003;27693;50.506;30.832;2023-03-11T04:25:03;26.20;22.80;16.40
42002;PMS7003;27693;50.506;30.832;2023-03-11T04:26:07;28.10;22.20;14.00
42002;PMS7003;27693;50.506;30.832;2023-03-11T04:27:11;23.80;20.40;14.60
42002;PMS7003;27693;50.506;30.832;2023-03-11T04:28:14;25.09;21.55;15.36
42002;PMS7003;27693;50.506;30.832;2023-03-11T04:29:17;27.20;25.30;16.80
42002;PMS7003;27693;50.506;30.832;2023-03-11T04:30:21;25.40;22.10;15.70
42002;PMS7003;27693;50.506;30.832;2023-03-11T04:31:26;19.20;17.20;13.40
42002;PMS7003;27693;50.506;30.832;2023-03-11T04:32:28;27.90;23.50;16.10
42002;PMS7003;27693;50.506;30.832;2023-03-11T04:33:30;26.10;22.80;17.50
42002;PMS7003;27693;50.506;30.832;2023-03-11T04:34:33;27.18;23.18;16.55
42002;PMS7003;27693;50.506;30.832;2023-03-11T04:35:37;28.40;22.80;17.20
42002;PMS7003;27693;50.506;30.832;2023-03-11T04:36:40;25.90;23.10;17.20
42002;PMS7003;27693;50.506;30.832;2023-03-11T04:37:43;22.18;20.00;15.00
42002;PMS7003;27693;50.506;30.832;2023-03-11T04:38:46;25.30;20.30;12.70
42002;PMS7003;27693;50.506;30.832;2023-03-11T04:39:49;31.91;24.00;17.36
42002;PMS7003;27693;50.506;30.832;2023-03-11T04:40:54;26.10;21.50;16.40
42002;PMS7003;27693;50.506;30.832;2023-03-11T04:42:03;25.30;23.80;16.40
42002;PMS7003;27693;50.506;30.832;2023-03-11T04:43:07;20.70;19.00;11.80
42002;PMS7003;27693;50.506;30.832;2023-03-11T04:44:11;25.10;19.50;14.10
42002;PMS7003;27693;50.506;30.832;2023-03-11T04:45:14;23.90;20.50;15.20
42002;PMS7003;27693;50.506;30.832;2023-03-11T04:46:19;24.70;20.10;15.00
42002;PMS7003;27693;50.506;30.832;2023-03-11T04:47:22;27.70;21.40;15.20
42002;PMS7003;27693;50.506;30.832;2023-03-11T04:48:25;26.50;22.70;14.60
42002;PMS7003;27693;50.506;30.832;2023-03-11T04:49:28;25.36;20.45;15.00
42002;PMS7003;27693;50.506;30.832;2023-03-11T04:50:31;28.90;24.20;15.90
42002;PMS7003;27693;50.506;30.832;2023-03-11T04:51:33;26.30;22.60;15.60
42002;PMS7003;27693;50.506;30.832;2023-03-11T04:52:36;23.60;19.00;13.50
42002;PMS7003;27693;50.506;30.832;2023-03-11T04:53:38;24.40;20.70;15.00
42002;PMS7003;27693;50.506;30.832;2023-03-11T04:54:41;23.40;20.90;15.20
42002;PMS7003;27693;50.506;30.832;2023-03-11T04:55:43;25.50;21.70;15.80
42002;PMS7003;27693;50.506;30.832;2023-03-11T04:56:46;25.60;23.00;14.90
42002;PMS7003;27693;50.506;30.832;2023-03-11T04:57:50;19.90;18.80;14.40
42002;PMS7003;27693;50.506;30.832;2023-03-11T04:58:53;27.80;21.60;16.40
42002;PMS7003;27693;50.506;30.832;2023-03-11T04:59:55;26.40;23.50;16.20
42002;PMS7003;27693;50.506;30.832;2023-03-11T05:00:59;25.60;22.40;15.60
42002;PMS7003;27693;50.506;30.832;2023-03-11T05:02:02;28.20;23.80;17.80
42002;PMS7003;27693;50.506;30.832;2023-03-11T05:03:05;27.10;20.90;14.90
42002;PMS7003;27693;50.506;30.832;2023-03-11T05:04:07;27.20;23.30;15.70
42002;PMS7003;27693;50.506;30.832;2023-03-11T05:05:12;24.70;20.50;15.00
42002;PMS7003;27693;50.506;30.832;2023-03-11T05:06:15;20.90;19.90;13.10
42002;PMS7003;27693;50.506;30.832;2023-03-11T05:07:20;22.50;20.80;14.60
42002;PMS7003;27693;50.506;30.832;2023-03-11T05:08:23;21.70;20.00;13.20
42002;PMS7003;27693;50.506;30.832;2023-03-11T05:09:26;22.55;20.18;14.91
42002;PMS7003;27693;50.506;30.832;2023-03-11T05:10:28;22.50;19.50;14.40
42002;PMS7003;27693;50.506;30.832;2023-03-11T05:11:33;25.70;20.00;15.20
42002;PMS7003;27693;50.506;30.832;2023-03-11T05:12:35;25.60;20.80;14.50
42002;PMS7003;27693;50.506;30.832;2023-03-11T05:13:38;26.10;21.80;14.30
42002;PMS7003;27693;50.506;30.832;2023-03-11T05:14:40;24.90;18.10;13.00
42002;PMS7003;27693;50.506;30.832;2023-03-11T05:15:43;26.10;23.40;17.60
42002;PMS7003;27693;50.506;30.832;2023-03-11T05:16:47;25.40;21.70;14.50
42002;PMS7003;27693;50.506;30.832;2023-03-11T05:17:49;26.20;20.10;14.80
42002;PMS7003;27693;50.506;30.832;2023-03-11T05:18:52;33.80;25.40;17.40
42002;PMS7003;27693;50.506;30.832;2023-03-11T05:19:54;24.40;21.10;14.40
42002;PMS7003;27693;50.506;30.832;2023-03-11T05:21:00;24.40;21.30;15.10
42002;PMS7003;27693;50.506;30.832;2023-03-11T05:22:04;28.70;24.90;16.60
42002;PMS7003;27693;50.506;30.832;2023-03-11T05:23:07;21.80;20.60;15.10
42002;PMS7003;27693;50.506;30.832;2023-03-11T05:24:11;24.40;21.50;15.00
42002;PMS7003;27693;50.506;30.832;2023-03-11T05:25:13;25.20;19.50;14.30
42002;PMS7003;27693;50.506;30.832;2023-03-11T05:26:17;23.60;21.50;16.00
42002;PMS7003;27693;50.506;30.832;2023-03-11T05:27:19;26.10;23.00;16.80
42002;PMS7003;27693;50.506;30.832;2023-03-11T05:28:24;21.10;18.00;14.10
42002;PMS7003;27693;50.506;30.832;2023-03-11T05:29:26;23.91;20.45;14.82
42002;PMS7003;27693;50.506;30.832;2023-03-11T05:30:29;28.90;20.80;13.40
42002;PMS7003;27693;50.506;30.832;2023-03-11T05:31:32;20.20;19.60;14.10
42002;PMS7003;27693;50.506;30.832;2023-03-11T05:32:36;21.70;19.50;14.90
42002;PMS7003;27693;50.506;30.832;2023-03-11T05:33:40;23.80;20.20;15.20
42002;PMS7003;27693;50.506;30.832;2023-03-11T05:34:44;22.80;20.00;14.80
42002;PMS7003;27693;50.506;30.832;2023-03-11T05:35:49;18.80;14.30;9.20
42002;PMS7003;27693;50.506;30.832;2023-03-11T05:36:53;23.10;18.50;14.10
42002;PMS7003;27693;50.506;30.832;2023-03-11T05:37:56;22.30;16.80;10.40
42002;PMS7003;27693;50.506;30.832;2023-03-11T05:39:00;20.80;17.70;13.20
42002;PMS7003;27693;50.506;30.832;2023-03-11T05:40:06;21.50;20.60;15.50
42002;PMS7003;27693;50.506;30.832;2023-03-11T05:41:11;21.80;17.80;13.20
42002;PMS7003;27693;50.506;30.832;2023-03-11T05:42:16;23.90;20.20;13.80
42002;PMS7003;27693;50.506;30.832;2023-03-11T05:43:20;22.20;19.90;14.50
42002;PMS7003;27693;50.506;30.832;2023-03-11T05:44:24;20.70;16.90;13.80
42002;PMS7003;27693;50.506;30.832;2023-03-11T05:45:27;20.60;17.60;14.80
42002;PMS7003;27693;50.506;30.832;2023-03-11T05:46:30;24.50;21.70;15.60
42002;PMS7003;27693;50.506;30.832;2023-03-11T05:47:33;24.27;18.27;13.73
42002;PMS7003;27693;50.506;30.832;2023-03-11T05:48:37;26.00;21.00;14.60
42002;PMS7003;27693;50.506;30.832;2023-03-11T05:49:40;25.90;21.40;14.60
42002;PMS7003;27693;50.506;30.832;2023-03-11T05:50:42;23.91;20.09;14.91
42002;PMS7003;27693;50.506;30.832;2023-03-11T05:51:45;23.10;20.80;14.50
42002;PMS7003;27693;50.506;30.832;2023-03-11T05:52:47;28.50;19.60;13.80
42002;PMS7003;27693;50.506;30.832;2023-03-11T05:53:51;22.10;17.90;12.60
42002;PMS7003;27693;50.506;30.832;2023-03-11T05:54:55;23.90;19.90;14.60
42002;PMS7003;27693;50.506;30.832;2023-03-11T05:56:00;23.60;20.40;14.70
42002;PMS7003;27693;50.506;30.832;2023-03-11T05:57:03;20.70;18.10;13.70
42002;PMS7003;27693;50.506;30.832;2023-03-11T05:58:07;21.60;18.30;13.70
42002;PMS7003;27693;50.506;30.832;2023-03-11T05:59:11;21.70;18.80;13.70
42002;PMS7003;27693;50.506;30.832;2023-03-11T06:00:17;26.60;20.30;15.50